Airfield :
LOGIN :

Register | Disclaimer

   EN    FR    IT 

 










Legend :    VFR   Marginal VFR   IFR   Intensive IFR   Very Intensive IFR
Visi :
Ceiling :
>= 8 km
>= 3000ft
5 to 8 km
1000 to 3000 ft
1500m to 5 km
500 to 1000 ft
800 to 1500m
200 to 500 ft
< 800m
< 200 ft
Symbols :   Thunderstorms  Fog  Heavy snow  Heavy precipitations  Wind > 20 kt
SIGMETs :     Misc.  Thunderstorms  Icing  Turbulence  Mountain Waves  Volcanic Ashes






- Airport Elevation : 45 ft
- IATA code : CEG


EGNR - Hawarden Chester

CURRENT METAR :
  • 151250Z 16005KT 9999 FEW039 06/01 Q0992

EXPIRED METARs :
  • 151220Z 15004KT 110V210 9999 FEW032 SCT045 06/01 Q0992
  • 151150Z 22006KT 190V260 9999 FEW032 SCT042 05/00 Q0992
  • 151120Z 23006KT 9999 FEW030 SCT042 05/00 Q0992
  • 151050Z 12006KT 080V140 9999 SCT030 SCT042 06/00 Q0992
  • 151020Z 09005KT 330V140 9999 SCT030 SCT045 05/M00 Q0991

TAF TAF EGNR
Valid from the 15 at 12:00 until the 15 at 19:00 UTC


151058Z 1512/1519 VRB03KT 9999 SCT040
BECMG 1512/1515 26013KT
TEMPO 1513/1519 7000 SHRA BKN012



MET'MAP, your aeronautical weather chart ! - Copyright ORBIFLY December 2007 - Disclaimer

ORBIFLY MET'MAP TEAM :

Programming & Development : Alexandra Zaïnal
Concept & original design : Baudouin d'Aumeries
Assistance for programming : Marc-Olivier Méhu
Technical & hardware support : Manuel Goepfert

Contact : metmap@orbifly.com




SOURCES & CREDITS :

   NOAA